createdAt,value
2023-05-07T00:00:09.413Z,5.98
2023-05-07T00:02:37.135Z,5.86
2023-05-07T00:05:05.380Z,5.96
2023-05-07T00:07:32.578Z,5.95
2023-05-07T00:09:59.708Z,5.83
2023-05-07T00:12:26.856Z,5.86
2023-05-07T00:14:53.963Z,5.92
2023-05-07T00:17:21.238Z,5.87
2023-05-07T00:19:48.915Z,6.00
2023-05-07T00:22:16.531Z,6.10
2023-05-07T00:24:43.673Z,6.06
2023-05-07T00:27:10.760Z,6.01
2023-05-07T00:29:37.817Z,6.01
2023-05-07T00:32:05.337Z,5.97
2023-05-07T00:34:32.479Z,5.95
2023-05-07T00:36:59.531Z,5.76
2023-05-07T00:39:26.507Z,5.76
2023-05-07T00:41:53.656Z,5.75
2023-05-07T00:44:20.702Z,5.85
2023-05-07T00:46:50.926Z,5.80
2023-05-07T00:49:19.171Z,5.72
2023-05-07T00:51:47.327Z,5.72
2023-05-07T00:54:15.111Z,5.82
2023-05-07T00:56:42.369Z,5.75
2023-05-07T00:59:09.807Z,5.70
2023-05-07T01:01:38.009Z,5.68
2023-05-07T01:04:05.454Z,5.64
2023-05-07T01:06:34.165Z,5.70
2023-05-07T01:09:02.943Z,5.69
2023-05-07T01:11:30.215Z,5.86
2023-05-07T01:13:59.759Z,5.79
2023-05-07T01:16:27.890Z,5.90
2023-05-07T01:18:55.148Z,5.84
2023-05-07T01:21:27.639Z,5.81
2023-05-07T01:23:57.089Z,5.79
2023-05-07T01:26:24.810Z,5.73
2023-05-07T01:28:51.941Z,5.70
2023-05-07T01:31:19.380Z,5.52
2023-05-07T01:33:49.273Z,5.54
2023-05-07T01:36:18.538Z,5.70
2023-05-07T01:38:47.035Z,5.69
2023-05-07T01:41:14.304Z,5.69
2023-05-07T01:43:43.519Z,5.59
2023-05-07T01:46:11.822Z,5.65
2023-05-07T01:48:39.304Z,5.76
2023-05-07T01:51:07.456Z,5.70
2023-05-07T01:53:39.395Z,5.70
2023-05-07T01:56:07.625Z,5.63
2023-05-07T01:58:34.937Z,5.58
2023-05-07T02:01:01.993Z,5.63
2023-05-07T02:03:29.209Z,5.73
2023-05-07T02:05:56.234Z,5.59
2023-05-07T02:08:23.286Z,5.56
2023-05-07T02:10:52.507Z,5.68
2023-05-07T02:13:20.985Z,5.49
2023-05-07T02:15:51.408Z,5.45
2023-05-07T02:18:18.962Z,5.48
2023-05-07T02:20:46.035Z,5.45
2023-05-07T02:23:13.120Z,5.52
2023-05-07T02:25:40.114Z,5.43
2023-05-07T02:28:07.244Z,5.45
2023-05-07T02:30:34.341Z,5.35
2023-05-07T02:33:01.416Z,5.35
2023-05-07T02:35:28.484Z,5.28
2023-05-07T02:37:55.518Z,5.44
2023-05-07T02:40:22.688Z,5.47
2023-05-07T02:42:49.692Z,5.43
2023-05-07T02:45:16.859Z,5.33
2023-05-07T02:47:43.879Z,5.38
2023-05-07T02:50:11.857Z,5.45
2023-05-07T02:52:39.195Z,5.45
2023-05-07T02:55:07.168Z,5.27
2023-05-07T02:57:34.206Z,5.36
2023-05-07T03:00:15.188Z,5.48
2023-05-07T03:02:42.313Z,5.34
2023-05-07T03:05:09.694Z,5.39
2023-05-07T03:07:38.001Z,5.30
2023-05-07T03:10:06.326Z,5.36
2023-05-07T03:12:33.385Z,5.35
2023-05-07T03:15:00.575Z,5.30
2023-05-07T03:17:27.720Z,5.28
2023-05-07T03:19:54.840Z,5.25
2023-05-07T03:22:21.877Z,5.35
2023-05-07T03:24:48.863Z,5.28
2023-05-07T03:27:15.919Z,5.35
2023-05-07T03:29:42.923Z,5.43
2023-05-07T03:32:09.977Z,5.40
2023-05-07T03:34:37.162Z,5.43
2023-05-07T03:37:04.176Z,5.45
2023-05-07T03:39:31.179Z,5.45
2023-05-07T03:41:59.810Z,5.39
2023-05-07T03:44:26.979Z,5.50
2023-05-07T03:46:53.956Z,5.37
2023-05-07T03:49:21.001Z,5.38
2023-05-07T03:51:48.036Z,5.50
2023-05-07T03:54:15.084Z,5.38
2023-05-07T03:56:42.149Z,5.54
2023-05-07T03:59:09.290Z,5.51
2023-05-07T04:01:36.387Z,5.44
2023-05-07T04:04:04.413Z,5.35
2023-05-07T04:06:32.200Z,5.60
2023-05-07T04:08:59.549Z,5.32
2023-05-07T04:11:26.838Z,5.40
2023-05-07T04:13:53.889Z,5.49
2023-05-07T04:16:21.005Z,5.49
2023-05-07T04:18:48.050Z,5.45
2023-05-07T04:21:20.014Z,5.75
2023-05-07T04:23:50.675Z,5.73
2023-05-07T04:26:17.742Z,5.78
2023-05-07T04:28:45.082Z,5.63
2023-05-07T04:31:12.081Z,5.62
2023-05-07T04:33:39.180Z,5.67
2023-05-07T04:36:06.713Z,5.80
2023-05-07T04:38:34.020Z,5.78
2023-05-07T04:41:08.203Z,5.89
2023-05-07T04:43:35.501Z,5.86
2023-05-07T04:46:02.694Z,5.75
2023-05-07T04:48:30.024Z,5.85
2023-05-07T04:50:57.148Z,5.86
2023-05-07T04:53:24.180Z,5.96
2023-05-07T04:55:57.959Z,6.00
2023-05-07T04:58:25.367Z,6.04
2023-05-07T05:00:52.992Z,6.17
2023-05-07T05:03:20.167Z,6.08
2023-05-07T05:05:47.377Z,6.27
2023-05-07T05:08:14.456Z,6.14
2023-05-07T05:10:42.683Z,6.18
2023-05-07T05:13:10.263Z,6.17
2023-05-07T05:15:37.323Z,6.14
2023-05-07T05:18:04.489Z,6.23
2023-05-07T05:20:31.591Z,6.45
2023-05-07T05:22:58.666Z,6.48
2023-05-07T05:25:25.775Z,6.48
2023-05-07T05:27:52.932Z,6.44
2023-05-07T05:30:21.294Z,6.48
2023-05-07T05:32:49.610Z,6.32
2023-05-07T05:35:16.910Z,6.41
2023-05-07T05:37:43.998Z,6.42
2023-05-07T05:40:12.080Z,6.51
2023-05-07T05:42:39.342Z,6.69
2023-05-07T05:45:07.312Z,6.70
2023-05-07T05:47:34.468Z,6.80
2023-05-07T05:50:01.573Z,6.85
2023-05-07T05:52:28.725Z,6.72
2023-05-07T05:54:56.010Z,6.57
2023-05-07T05:57:23.210Z,6.53
2023-05-07T05:59:50.459Z,6.67
2023-05-07T06:02:17.553Z,6.55
2023-05-07T06:04:54.774Z,6.48
2023-05-07T06:07:32.214Z,6.53
2023-05-07T06:09:59.219Z,6.69
2023-05-07T06:12:26.244Z,6.49
2023-05-07T06:14:54.350Z,6.73
2023-05-07T06:17:22.022Z,6.55
2023-05-07T06:19:49.262Z,6.42
2023-05-07T06:22:16.417Z,6.51
2023-05-07T06:24:44.046Z,6.56
2023-05-07T06:27:11.076Z,6.68
2023-05-07T06:29:38.372Z,6.68
2023-05-07T06:32:14.529Z,6.75
2023-05-07T06:34:42.105Z,6.67
2023-05-07T06:37:09.406Z,6.91
2023-05-07T06:39:36.406Z,6.90
2023-05-07T06:42:03.772Z,6.95
2023-05-07T06:44:30.805Z,6.98
2023-05-07T06:46:58.566Z,6.98
2023-05-07T06:49:25.660Z,7.05
2023-05-07T06:51:52.720Z,7.01
2023-05-07T06:54:19.883Z,7.20
2023-05-07T06:56:46.897Z,7.18
2023-05-07T06:59:13.943Z,7.38
2023-05-07T07:01:41.532Z,7.44
2023-05-07T07:04:08.886Z,7.48
2023-05-07T07:06:35.990Z,7.35
2023-05-07T07:09:03.213Z,7.54
2023-05-07T07:11:30.349Z,7.45
2023-05-07T07:13:57.571Z,7.41
2023-05-07T07:16:24.678Z,7.50
2023-05-07T07:18:52.383Z,7.46
2023-05-07T07:21:19.414Z,7.62
2023-05-07T07:23:46.573Z,7.91
2023-05-07T07:26:13.580Z,7.57
2023-05-07T07:28:47.905Z,7.54
2023-05-07T07:31:15.024Z,7.75
2023-05-07T07:33:42.424Z,7.73
2023-05-07T07:36:09.675Z,7.87
2023-05-07T07:38:36.740Z,7.59
2023-05-07T07:41:03.975Z,7.51
2023-05-07T07:43:31.072Z,7.35
2023-05-07T07:45:58.176Z,7.52
2023-05-07T07:48:25.442Z,7.67
2023-05-07T07:50:52.639Z,7.84
2023-05-07T07:53:20.177Z,7.96
2023-05-07T07:55:47.350Z,8.01
2023-05-07T07:58:14.466Z,7.93
2023-05-07T08:00:41.587Z,7.82
2023-05-07T08:03:11.840Z,7.98
2023-05-07T08:05:39.559Z,7.88
2023-05-07T08:08:07.018Z,7.98
2023-05-07T08:10:35.876Z,8.04
2023-05-07T08:13:04.960Z,8.17
2023-05-07T08:15:32.381Z,8.13
2023-05-07T08:18:01.387Z,8.15
2023-05-07T08:20:29.663Z,8.66
2023-05-07T08:22:56.861Z,8.59
2023-05-07T08:25:24.058Z,8.49
2023-05-07T08:27:51.080Z,8.49
2023-05-07T08:30:18.156Z,9.08
2023-05-07T08:32:45.470Z,9.47
2023-05-07T08:35:12.658Z,9.90
2023-05-07T08:37:39.770Z,9.77
2023-05-07T08:40:10.689Z,9.44
2023-05-07T08:42:41.072Z,9.28
2023-05-07T08:45:12.739Z,9.29
2023-05-07T08:47:47.606Z,9.27
2023-05-07T08:50:15.020Z,9.67
2023-05-07T08:52:42.233Z,10.03
2023-05-07T08:55:11.194Z,9.98
2023-05-07T08:57:40.240Z,10.64
2023-05-07T09:00:09.214Z,11.04
2023-05-07T09:02:39.466Z,10.47
2023-05-07T09:05:07.585Z,10.09
2023-05-07T09:07:34.892Z,9.99
2023-05-07T09:10:06.456Z,9.64
2023-05-07T09:12:33.771Z,9.58
2023-05-07T09:15:01.031Z,9.70
2023-05-07T09:17:28.880Z,9.70
2023-05-07T09:19:56.403Z,9.79
2023-05-07T09:22:23.442Z,10.11
2023-05-07T09:24:51.622Z,10.58
2023-05-07T09:27:19.298Z,10.98
2023-05-07T09:29:46.649Z,10.83
2023-05-07T09:32:14.387Z,10.30
2023-05-07T09:34:42.562Z,10.14
2023-05-07T09:37:09.683Z,9.99
2023-05-07T09:39:50.834Z,10.18
2023-05-07T09:42:23.734Z,10.54
2023-05-07T09:44:51.539Z,10.51
2023-05-07T09:47:24.610Z,10.78
2023-05-07T09:49:56.641Z,11.33
2023-05-07T09:52:24.862Z,11.09
2023-05-07T09:54:52.399Z,10.81
2023-05-07T09:57:21.637Z,10.74
2023-05-07T09:59:50.412Z,10.59
2023-05-07T10:02:20.446Z,10.67
2023-05-07T10:04:50.318Z,11.14
2023-05-07T10:07:18.436Z,11.53
2023-05-07T10:09:49.050Z,11.15
2023-05-07T10:12:17.657Z,11.40
2023-05-07T10:14:45.971Z,11.18
2023-05-07T10:17:14.778Z,10.87
2023-05-07T10:19:42.358Z,11.29
2023-05-07T10:22:10.266Z,11.62
2023-05-07T10:24:38.506Z,12.10
2023-05-07T10:27:11.985Z,12.11
2023-05-07T10:30:18.739Z,11.39
2023-05-07T10:32:54.710Z,11.36
2023-05-07T10:35:32.959Z,11.31
2023-05-07T10:38:00.333Z,11.38
2023-05-07T10:40:27.409Z,11.21
2023-05-07T10:43:02.837Z,11.07
2023-05-07T10:45:30.632Z,11.22
2023-05-07T10:48:28.961Z,11.16
2023-05-07T10:51:21.988Z,11.03
2023-05-07T10:53:49.035Z,11.23
2023-05-07T10:56:18.752Z,11.26
2023-05-07T10:58:46.086Z,11.31
2023-05-07T11:01:14.345Z,11.36
2023-05-07T11:04:25.417Z,11.59
2023-05-07T11:07:08.053Z,11.59
2023-05-07T11:09:53.472Z,11.26
2023-05-07T11:12:39.170Z,11.37
2023-05-07T11:15:34.295Z,10.73
2023-05-07T11:18:01.882Z,10.54
2023-05-07T11:20:59.015Z,11.03
2023-05-07T11:23:35.434Z,11.28
2023-05-07T11:26:10.945Z,11.05
2023-05-07T11:28:43.915Z,11.33
2023-05-07T11:31:12.726Z,10.94
2023-05-07T11:33:40.291Z,11.05
2023-05-07T11:36:09.942Z,11.30
2023-05-07T11:38:38.619Z,11.32
2023-05-07T11:41:06.308Z,11.27
2023-05-07T11:43:34.161Z,11.08
2023-05-07T11:46:12.151Z,10.95
2023-05-07T11:48:40.338Z,10.94
2023-05-07T11:51:10.100Z,11.04
2023-05-07T11:53:44.603Z,10.90
2023-05-07T11:56:17.307Z,10.75
2023-05-07T11:58:46.456Z,11.10
2023-05-07T12:01:14.998Z,11.30
2023-05-07T12:03:44.832Z,11.55
2023-05-07T12:06:13.385Z,11.62
2023-05-07T12:08:42.897Z,11.53
2023-05-07T12:11:23.222Z,11.69
2023-05-07T12:13:50.490Z,11.64
2023-05-07T12:16:18.518Z,11.45
2023-05-07T12:18:45.967Z,11.30
2023-05-07T12:21:13.656Z,11.27
2023-05-07T12:23:42.007Z,11.24
2023-05-07T12:26:09.863Z,11.54
2023-05-07T12:28:40.318Z,11.73
2023-05-07T12:31:08.662Z,11.66
2023-05-07T12:33:36.967Z,11.98
2023-05-07T12:36:08.568Z,11.85
2023-05-07T12:38:44.358Z,11.75
2023-05-07T12:41:13.619Z,11.55
2023-05-07T12:43:40.933Z,11.41
2023-05-07T12:46:09.542Z,11.53
2023-05-07T12:48:44.437Z,11.80
2023-05-07T12:51:13.435Z,12.02
2023-05-07T12:53:44.470Z,11.45
2023-05-07T12:56:11.624Z,11.66
2023-05-07T12:58:38.715Z,11.64
2023-05-07T13:01:08.466Z,11.42
2023-05-07T13:03:39.124Z,11.75
2023-05-07T13:06:11.159Z,11.81
2023-05-07T13:08:42.433Z,11.85
2023-05-07T13:11:11.218Z,11.61
2023-05-07T13:13:41.397Z,11.80
2023-05-07T13:16:12.039Z,12.11
2023-05-07T13:18:41.827Z,12.49
2023-05-07T13:21:10.135Z,12.11
2023-05-07T13:23:39.533Z,11.97
2023-05-07T13:26:18.498Z,11.82
2023-05-07T13:28:56.918Z,11.70
2023-05-07T13:31:24.484Z,11.49
2023-05-07T13:33:51.735Z,11.51
2023-05-07T13:36:18.769Z,11.46
2023-05-07T13:38:45.861Z,11.61
2023-05-07T13:41:14.209Z,11.50
2023-05-07T13:43:41.198Z,11.43
2023-05-07T13:46:08.281Z,11.86
2023-05-07T13:48:35.475Z,11.86
2023-05-07T13:51:02.460Z,11.68
2023-05-07T13:53:29.464Z,11.79
2023-05-07T13:55:56.436Z,11.79
2023-05-07T13:58:23.539Z,11.88
2023-05-07T14:00:51.000Z,11.96
2023-05-07T14:03:18.829Z,11.96
2023-05-07T14:05:47.194Z,11.93
2023-05-07T14:08:15.985Z,11.96
2023-05-07T14:10:42.988Z,11.72
2023-05-07T14:13:10.069Z,11.87
2023-05-07T14:15:37.877Z,11.87
2023-05-07T14:18:05.070Z,11.92
2023-05-07T14:20:32.318Z,12.04
2023-05-07T14:22:59.305Z,12.13
2023-05-07T14:25:26.378Z,11.85
2023-05-07T14:27:53.334Z,11.87
2023-05-07T14:30:20.696Z,11.85
2023-05-07T14:32:48.052Z,11.82
2023-05-07T14:35:15.191Z,11.86
2023-05-07T14:37:42.330Z,11.65
2023-05-07T14:40:10.581Z,11.66
2023-05-07T14:42:37.852Z,11.82
2023-05-07T14:45:05.676Z,11.92
2023-05-07T14:47:32.714Z,11.75
2023-05-07T14:50:02.090Z,11.66
2023-05-07T14:52:29.417Z,11.69
2023-05-07T14:54:56.545Z,11.54
2023-05-07T14:57:23.671Z,11.70
2023-05-07T14:59:50.759Z,11.88
2023-05-07T15:02:20.898Z,11.92
2023-05-07T15:04:49.634Z,11.84
2023-05-07T15:07:17.289Z,12.03
2023-05-07T15:09:45.658Z,11.92
2023-05-07T15:12:13.046Z,12.04
2023-05-07T15:14:40.648Z,11.98
2023-05-07T15:17:08.459Z,12.07
2023-05-07T15:19:35.799Z,11.89
2023-05-07T15:22:03.778Z,11.81
2023-05-07T15:24:31.897Z,11.85
2023-05-07T15:26:59.315Z,12.00
2023-05-07T15:29:26.424Z,12.02
2023-05-07T15:31:53.451Z,11.91
2023-05-07T15:34:21.938Z,12.08
2023-05-07T15:36:49.068Z,12.02
2023-05-07T15:39:16.135Z,11.97
2023-05-07T15:41:43.179Z,12.31
2023-05-07T15:44:10.350Z,12.27
2023-05-07T15:46:37.401Z,12.11
2023-05-07T15:49:08.509Z,12.09
2023-05-07T15:51:36.782Z,12.10
2023-05-07T15:54:04.049Z,11.87
2023-05-07T15:56:33.932Z,11.86
2023-05-07T15:59:02.254Z,11.87
2023-05-07T16:01:29.593Z,12.06
2023-05-07T16:03:56.998Z,12.05
2023-05-07T16:06:24.047Z,11.82
2023-05-07T16:08:51.128Z,12.01
2023-05-07T16:11:18.199Z,11.93
2023-05-07T16:13:45.375Z,11.97
2023-05-07T16:16:13.209Z,12.05
2023-05-07T16:18:40.229Z,12.04
2023-05-07T16:21:07.390Z,12.10
2023-05-07T16:23:34.471Z,12.25
2023-05-07T16:26:01.543Z,12.23
2023-05-07T16:28:28.830Z,12.13
2023-05-07T16:30:55.917Z,12.08
2023-05-07T16:33:23.051Z,12.34
2023-05-07T16:35:53.773Z,12.40
2023-05-07T16:38:20.910Z,12.43
2023-05-07T16:40:48.012Z,12.38
2023-05-07T16:43:15.110Z,12.15
2023-05-07T16:45:42.262Z,12.07
2023-05-07T16:48:09.475Z,11.99
2023-05-07T16:50:37.046Z,11.98
2023-05-07T16:53:07.179Z,11.89
2023-05-07T16:55:38.916Z,11.72
2023-05-07T16:58:08.203Z,11.80
2023-05-07T17:00:49.280Z,11.86
2023-05-07T17:03:19.115Z,11.72
2023-05-07T17:05:46.770Z,11.82
2023-05-07T17:08:14.496Z,11.67
2023-05-07T17:10:42.357Z,11.80
2023-05-07T17:13:09.598Z,11.66
2023-05-07T17:15:36.758Z,11.58
2023-05-07T17:18:04.043Z,11.56
2023-05-07T17:20:31.099Z,11.51
2023-05-07T17:22:58.193Z,11.55
2023-05-07T17:25:25.259Z,11.70
2023-05-07T17:27:52.456Z,11.79
2023-05-07T17:30:19.871Z,11.58
2023-05-07T17:32:46.878Z,11.72
2023-05-07T17:35:14.056Z,11.42
2023-05-07T17:37:41.943Z,11.43
2023-05-07T17:40:09.663Z,11.24
2023-05-07T17:42:36.748Z,11.24
2023-05-07T17:45:03.924Z,11.27
2023-05-07T17:47:31.305Z,11.32
2023-05-07T17:49:59.930Z,11.24
2023-05-07T17:52:27.870Z,11.17
2023-05-07T17:54:54.948Z,11.05
2023-05-07T17:57:22.026Z,11.19
2023-05-07T17:59:49.313Z,11.18
2023-05-07T18:02:16.507Z,10.91
2023-05-07T18:04:43.662Z,10.84
2023-05-07T18:07:10.706Z,10.91
2023-05-07T18:09:37.832Z,10.84
2023-05-07T18:12:05.125Z,10.76
2023-05-07T18:14:32.142Z,10.68
2023-05-07T18:16:59.181Z,10.65
2023-05-07T18:19:28.095Z,10.54
2023-05-07T18:21:57.279Z,10.47
2023-05-07T18:24:25.448Z,10.48
2023-05-07T18:26:52.846Z,10.41
2023-05-07T18:29:20.095Z,10.39
2023-05-07T18:31:47.246Z,10.26
2023-05-07T18:34:14.685Z,10.33
2023-05-07T18:36:42.017Z,10.09
2023-05-07T18:39:09.147Z,10.11
2023-05-07T18:41:36.640Z,10.13
2023-05-07T18:44:03.733Z,10.18
2023-05-07T18:46:30.825Z,10.10
2023-05-07T18:48:58.098Z,10.02
2023-05-07T18:51:25.270Z,9.97
2023-05-07T18:53:52.360Z,10.12
2023-05-07T18:56:19.462Z,9.91
2023-05-07T18:58:46.724Z,9.80
2023-05-07T19:01:13.846Z,9.73
2023-05-07T19:03:40.955Z,9.69
2023-05-07T19:06:08.042Z,9.78
2023-05-07T19:08:35.184Z,9.82
2023-05-07T19:11:03.729Z,9.79
2023-05-07T19:13:31.155Z,9.75
2023-05-07T19:15:58.304Z,9.67
2023-05-07T19:18:25.844Z,9.63
2023-05-07T19:20:55.166Z,9.66
2023-05-07T19:23:22.694Z,9.60
2023-05-07T19:25:49.732Z,9.57
2023-05-07T19:28:16.936Z,9.53
2023-05-07T19:30:44.017Z,9.62
2023-05-07T19:33:11.994Z,9.60
2023-05-07T19:35:39.162Z,9.63
2023-05-07T19:38:06.416Z,9.38
2023-05-07T19:40:33.506Z,9.31
2023-05-07T19:43:00.859Z,9.53
2023-05-07T19:45:28.046Z,9.36
2023-05-07T19:47:55.237Z,9.27
2023-05-07T19:50:22.503Z,9.30
2023-05-07T19:52:49.706Z,9.13
2023-05-07T19:55:16.786Z,9.09
2023-05-07T19:57:49.854Z,9.18
2023-05-07T20:00:17.465Z,9.11
2023-05-07T20:02:44.831Z,9.07
2023-05-07T20:05:12.661Z,9.09
2023-05-07T20:07:41.343Z,9.06
2023-05-07T20:10:10.889Z,8.96
2023-05-07T20:12:38.174Z,8.92
2023-05-07T20:15:05.953Z,8.92
2023-05-07T20:17:34.416Z,8.93
2023-05-07T20:20:01.493Z,8.92
2023-05-07T20:22:32.155Z,8.80
2023-05-07T20:24:59.318Z,8.82
2023-05-07T20:27:26.427Z,8.82
2023-05-07T20:29:54.248Z,8.82
2023-05-07T20:32:21.465Z,8.76
2023-05-07T20:34:48.592Z,8.67
2023-05-07T20:37:15.913Z,8.66
2023-05-07T20:39:43.831Z,8.52
2023-05-07T20:42:10.993Z,8.63
2023-05-07T20:44:38.244Z,8.65
2023-05-07T20:47:05.456Z,8.51
2023-05-07T20:49:32.923Z,8.55
2023-05-07T20:51:59.972Z,8.48
2023-05-07T20:54:28.384Z,8.45
2023-05-07T20:56:57.009Z,8.53
2023-05-07T20:59:24.454Z,8.49
2023-05-07T21:01:51.811Z,8.40
2023-05-07T21:04:18.961Z,8.40
2023-05-07T21:06:46.169Z,8.39
2023-05-07T21:09:13.325Z,8.36
2023-05-07T21:11:40.368Z,8.32
2023-05-07T21:14:07.392Z,8.41
2023-05-07T21:16:34.396Z,8.43
2023-05-07T21:19:01.531Z,8.38
2023-05-07T21:21:28.754Z,8.23
2023-05-07T21:23:55.893Z,8.11
2023-05-07T21:26:23.123Z,8.22
2023-05-07T21:28:50.931Z,8.05
2023-05-07T21:31:18.601Z,7.90
2023-05-07T21:33:45.702Z,7.92
2023-05-07T21:36:13.376Z,8.01
2023-05-07T21:38:41.353Z,7.95
2023-05-07T21:41:08.562Z,7.84
2023-05-07T21:43:35.578Z,7.80
2023-05-07T21:46:08.037Z,7.76
2023-05-07T21:48:35.674Z,7.92
2023-05-07T21:51:08.353Z,7.62
2023-05-07T21:53:35.908Z,7.61
2023-05-07T21:56:04.996Z,7.70
2023-05-07T21:58:32.404Z,7.67
2023-05-07T22:01:00.943Z,7.62
2023-05-07T22:03:28.254Z,7.46
2023-05-07T22:05:55.834Z,7.44
2023-05-07T22:08:22.928Z,7.47
2023-05-07T22:10:50.641Z,7.37
2023-05-07T22:13:18.079Z,7.23
2023-05-07T22:15:56.766Z,7.08
2023-05-07T22:18:24.973Z,7.05
2023-05-07T22:20:52.721Z,7.02
2023-05-07T22:23:19.744Z,6.92
2023-05-07T22:25:46.998Z,6.81
2023-05-07T22:28:14.197Z,6.84
2023-05-07T22:30:41.430Z,6.92
2023-05-07T22:33:08.655Z,6.77
2023-05-07T22:35:35.788Z,6.69
2023-05-07T22:38:02.920Z,6.60
2023-05-07T22:40:30.065Z,6.77
2023-05-07T22:42:57.146Z,6.77
2023-05-07T22:45:24.192Z,6.61
2023-05-07T22:47:51.370Z,6.60
2023-05-07T22:50:18.672Z,6.67
2023-05-07T22:52:45.853Z,6.57
2023-05-07T22:55:12.906Z,6.53
2023-05-07T22:57:40.150Z,6.52
2023-05-07T23:00:08.285Z,6.63
2023-05-07T23:02:35.780Z,6.54
2023-05-07T23:05:03.273Z,6.46
2023-05-07T23:07:30.571Z,6.47
2023-05-07T23:09:57.604Z,6.52
2023-05-07T23:12:24.703Z,6.49
2023-05-07T23:14:51.836Z,6.54
2023-05-07T23:17:18.852Z,6.54
2023-05-07T23:19:46.009Z,6.40
2023-05-07T23:22:13.248Z,6.48
2023-05-07T23:24:40.446Z,6.51
2023-05-07T23:27:07.897Z,6.32
2023-05-07T23:29:35.557Z,6.52
2023-05-07T23:32:02.785Z,6.46
2023-05-07T23:34:29.896Z,6.33
2023-05-07T23:36:56.920Z,6.30
2023-05-07T23:39:24.021Z,6.21
2023-05-07T23:41:51.099Z,6.19
2023-05-07T23:44:18.372Z,6.15
2023-05-07T23:46:45.565Z,6.24
2023-05-07T23:49:12.658Z,6.15
2023-05-07T23:51:39.711Z,6.16
2023-05-07T23:54:07.403Z,6.11
2023-05-07T23:56:34.536Z,5.98
2023-05-07T23:59:01.607Z,5.75
